Flight Track Log - Related Links

Times and Time Zones

All times are in EDT time to prevent confusion due to time zone crossing. See the SWA2339 flight status page for this flight to view local times or setup timezone preferences in your user account.

Time Position Orientation Groundspeed Altitude Reporting Facility
EDT Latitude Longitude Course Direction KTS MPH feet Rate Location/Type
Sun 10:31:16 AM 38.1297 -85.7333 170° South 173 199 2,300  Level FAA TRACON SMA TRACON (SMA)
Sun 10:31:35 AM 38.1081 -85.7342 182° South 200 230 3,300 2,769 Climbing FAA TRACON SMA TRACON (SMA)
Sun 10:31:55 AM 38.0919 -85.7444 207° Southwest 213 245 4,100 1,800 Climbing FAA TRACON SMA TRACON (SMA)
Sun 10:32:15 AM 38.0797 -85.7653 233° Southwest 234 269 4,500 1,800 Climbing FAA TRACON SMA TRACON (SMA)
Sun 10:32:35 AM 38.0761 -85.7939 261° West 262 302 5,300 3,900 Climbing FAA TRACON SMA TRACON (SMA)
Sun 10:32:55 AM 38.0756 -85.8306 269° West 273 314 7,100 4,465 Climbing FAA TRACON SMA TRACON (SMA)
Sun 10:33:18 AM 38.0761 -85.8689 271° West 281 323 8,500 3,488 Climbing FAA TRACON SMA TRACON (SMA)
Sun 10:33:38 AM 38.0883 -85.8947 301° West 288 331 9,600 3,405 Climbing FAA TRACON SMA TRACON (SMA)
Sun 10:33:55 AM 38.1097 -85.9097 331° Northwest 293 337 10,600 2,270 Climbing FAA TRACON SMA TRACON (SMA)
Sun 10:34:15 AM 38.1364 -85.9133 354° North 305 351 11,000 1,902 Climbing FAA TRACON SMA TRACON (SMA)
Sun 10:34:36 AM 38.1650 -85.9156 357° North 327 376 11,900 3,300 Climbing FAA TRACON SMA TRACON (SMA)
Sun 10:34:55 AM 38.2025 -85.9189 356° North 349 402 13,200 3,692 Climbing FAA TRACON SMA TRACON (SMA)
Sun 10:35:15 AM 38.2333 -85.9206 358° North 359 413 14,300 3,300 Climbing FAA TRACON SMA TRACON (SMA)
Sun 10:35:35 AM 38.2644 -85.9225 357° North 363 418 15,400 3,600 Climbing FAA TRACON SMA TRACON (SMA)
Sun 10:35:55 AM 38.3039 -85.9250 357° North 369 425 16,700 3,366 Climbing FAA TRACON SMA TRACON (SMA)
Sun 10:36:16 AM 38.3356 -85.9258 359° North 370 426 17,700 2,100 Climbing FAA TRACON SMA TRACON (SMA)
Sun 10:36:35 AM 38.3678 -85.9278 357° North 376 433 18,100 1,846 Climbing FAA TRACON SMA TRACON (SMA)
Sun 10:36:55 AM 38.4006 -85.9292 358° North 379 436 18,900 2,700 Climbing FAA TRACON SMA TRACON (SMA)
Sun 10:37:15 AM 38.4419 -85.9311 358° North 387 445 19,900 2,850 Climbing FAA TRACON SMA TRACON (SMA)
Sun 10:37:35 AM 38.4761 -85.9328 358° North 394 453 20,800 3,000 Climbing FAA TRACON SMA TRACON (SMA)
Sun 10:37:55 AM 38.5189 -85.9356 357° North 400 460 21,900 3,000 Climbing FAA TRACON SMA TRACON (SMA)
Sun 10:38:15 AM 38.5539 -85.9364 359° North 403 464 22,800 2,550 Climbing FAA TRACON SMA TRACON (SMA)
Sun 10:38:35 AM 38.5883 -85.9386 357° North 404 465 23,600 1,800 Climbing FAA TRACON SMA TRACON (SMA)
Sun 10:38:55 AM 38.6314 -85.9414 357° North 406 467 24,000 600 Climbing FAA TRACON SMA TRACON (SMA)
Sun 10:39:15 AM 38.6664 -85.9433 358° North 405 466 24,000  Level FAA TRACON SMA TRACON (SMA)
Sun 10:39:35 AM 38.7011 -85.9444 359° North 404 465 24,000  Level FAA TRACON SMA TRACON (SMA)
Sun 10:39:55 AM 38.7356 -85.9461 358° North 405 466 24,000  Level FAA TRACON SMA TRACON (SMA)
Sun 10:40:16 AM 38.7789 -85.9483 358° North 404 465 24,000  Level FAA TRACON SMA TRACON (SMA)
Sun 10:40:35 AM 38.8125 -85.9517 356° North 399 459 24,000  Level FAA TRACON SMA TRACON (SMA)
Sun 10:40:55 AM 38.8475 -85.9517 360° North 403 464 24,000  Level FAA TRACON SMA TRACON (SMA)
Sun 10:41:15 AM 38.8903 -85.9544 357° North 402 463 24,000  Level FAA TRACON SMA TRACON (SMA)
Sun 10:41:35 AM 38.9247 -85.9567 357° North 402 463 24,000  Level FAA TRACON SMA TRACON (SMA)
Sun 10:41:55 AM 38.9683 -85.9589 358° North 406 467 24,000  Level FAA TRACON SMA TRACON (SMA)
Sun 10:42:15 AM 39.0028 -85.9625 355° North 405 466 24,000  Level FAA TRACON SMA TRACON (SMA)
Sun 10:42:35 AM 39.0381 -85.9622 360° North 408 470 24,000  Level FAA TRACON SMA TRACON (SMA)
Sun 10:42:50 AM 39.0628 -85.9656 354° North 408 470 24,000 1,263 Level Indianapolis Center
Sun 10:43:51 AM 39.1775 -85.9717 358° North 411 473 25,600 976 Climbing Indianapolis Center
Sun 10:44:53 AM 39.2922 -85.9797 357° North 411 473 26,000 194 Climbing Indianapolis Center
Sun 10:45:55 AM 39.4047 -85.9861 357° North 406 467 26,000  Level Indianapolis Center
Sun 10:46:57 AM 39.5175 -85.9933 357° North 404 465 26,000  Level Indianapolis Center
Sun 10:47:59 AM 39.6278 -85.9994 358° North 397 457 26,000  Level Indianapolis Center
Sun 10:49:00 AM 39.7389 -86.0072 357° North 397 457 26,000 -390 Level Indianapolis Center
Sun 10:50:02 AM 39.8697 -86.0156 357° North 393 452 25,200 -968 Descending Indianapolis Center
Sun 10:51:04 AM 39.9747 -86.0222 357° North 383 441 24,000 -585 Descending Indianapolis Center
Sun 10:52:05 AM 40.0803 -86.0292 357° North 377 434 24,000 -124 Level Indianapolis Center
Sun 10:52:41 AM 40.1400 -86.0314 358° North 383 441 23,800 -735 Descending Chicago Center
Sun 10:53:43 AM 40.2439 -86.0394 357° North 374 430 22,800 -968 Descending Chicago Center
Sun 10:54:45 AM 40.3453 -86.0458 357° North 366 421 21,800 -976 Descending Chicago Center
Sun 10:55:46 AM 40.4456 -86.0522 357° North 361 415 20,800 -878 Descending Chicago Center
Sun 10:56:48 AM 40.5450 -86.0572 358° North 358 412 20,000 -387 Descending Chicago Center
Sun 10:57:50 AM 40.6661 -86.0547 North 364 419 20,000 -97 Level Chicago Center
Sun 10:58:52 AM 40.7664 -86.0528 North 361 415 19,800 -780 Descending Chicago Center
Sun 10:59:53 AM 40.8608 -86.0503 North 342 394 18,400 -1,415 Descending Chicago Center
Sun 11:00:55 AM 40.9494 -86.0603 355° North 327 376 16,900 -1,610 Descending Chicago Center
Sun 11:01:56 AM 40.9867 -86.1639 295° West 317 365 15,100 -1,707 Descending Chicago Center
Sun 11:02:58 AM 41.0122 -86.2722 287° West 308 354 13,400 -1,659 Descending Chicago Center
Sun 11:03:59 AM 41.0358 -86.3772 287° West 300 345 11,700 -1,171 Descending Chicago Center
Sun 11:05:01 AM 41.0650 -86.4750 292° West 287 330 11,000 -823 Descending Chicago Center
Sun 11:06:03 AM 41.1100 -86.5833 299° West 281 323 10,000 -488 Descending Chicago Center
Sun 11:07:04 AM 41.1753 -86.6275 333° Northwest 267 307 10,000  Level Chicago Center
Sun 11:08:06 AM 41.2406 -86.6650 337° Northwest 258 297 10,000  Level Chicago Center
Sun 11:09:07 AM 41.2978 -86.7308 319° Northwest 263 303 10,000  Level Chicago Center
Sun 11:10:09 AM 41.3397 -86.8094 305° West 261 300 10,000  Level Chicago Center
Sun 11:11:10 AM 41.3803 -86.8906 304° West 265 305 10,000 -341 Level Chicago Center
Sun 11:12:12 AM 41.4214 -86.9708 304° West 264 304 9,300 -1,065 Descending Chicago Center
Sun 11:13:14 AM 41.4614 -87.0500 304° West 261 300 7,800 -1,526 Descending Chicago Center
Sun 11:14:06 AM 41.5000 -87.1333 302° West 257 296 6,400 -1,019 Descending Chicago TRACON
Sun 11:15:00 AM 41.5167 -87.2167 285° West 258 297 6,000 -1,100 Descending Chicago TRACON
Sun 11:16:06 AM 41.5333 -87.3167 283° West 270 311 4,200 -905 Descending Chicago TRACON
Sun 11:17:06 AM 41.5333 -87.4167 270° West 265 305 4,100 -50 Descending Chicago TRACON
Sun 11:18:07 AM 41.5500 -87.5167 283° West 264 304 4,100  Level Chicago TRACON
Sun 11:19:07 AM 41.5667 -87.6000 285° West 266 306 4,100 -158 Level Chicago TRACON
Sun 11:19:23 AM 41.5606 -87.6217 249° West 263 303 3,900 -156 Descending Chicago Center
Sun 11:20:24 AM 41.5697 -87.7156 277° West 261 300 3,900 -390 Level Chicago Center
Sun 11:21:26 AM 41.6017 -87.7808 303° West 236 272 3,100 -742 Descending Chicago Center
Sun 11:22:01 AM 41.6333 -87.8167 320° Northwest 193 222 2,700 -316 Descending Chicago TRACON
Sun 11:23:01 AM 41.6667 -87.8667 312° West 186 214 2,600 -50 Descending Chicago TRACON
Sun 11:24:01 AM 41.7000 -87.8500 20° North 180 207 2,600 -48 Level Chicago TRACON
Sun 11:25:07 AM 41.7500 -87.8500 360° North 182 209 2,500 -350 Descending Chicago TRACON
Sun 11:26:01 AM 41.8000 -87.8333 14° North 168 193 1,900 -500 Descending Chicago TRACON
Sun 11:26:55 AM 41.8167 -87.8000 56° Northeast 138 159 1,600 -387 Descending Chicago TRACON
Sun 11:28:36 AM 41.7800 -87.7494 134° Southeast 150 173 900 -416 Descending Chicago Center

Login

Don't have an account? Register now (free) for customized features, flight alerts, and more!